createdAt,value
2018-02-13T00:00:47.313Z,2.02
2018-02-13T00:03:14.758Z,1.98
2018-02-13T00:05:42.201Z,1.93
2018-02-13T00:08:10.292Z,2.09
2018-02-13T00:10:37.745Z,2.07
2018-02-13T00:13:05.187Z,1.98
2018-02-13T00:15:33.541Z,1.90
2018-02-13T00:18:00.996Z,1.96
2018-02-13T00:20:28.455Z,1.85
2018-02-13T00:23:01.188Z,1.73
2018-02-13T00:25:28.722Z,1.81
2018-02-13T00:27:56.168Z,1.70
2018-02-13T00:30:24.191Z,1.74
2018-02-13T00:32:51.633Z,1.72
2018-02-13T00:35:19.096Z,1.71
2018-02-13T00:37:47.194Z,1.81
2018-02-13T00:40:14.652Z,1.72
2018-02-13T00:42:42.110Z,1.66
2018-02-13T00:45:09.870Z,1.63
2018-02-13T00:47:37.333Z,1.64
2018-02-13T00:50:04.789Z,1.59
2018-02-13T00:52:32.552Z,1.69
2018-02-13T00:55:00.010Z,1.61
2018-02-13T00:57:28.046Z,1.59
2018-02-13T00:59:55.857Z,1.51
2018-02-13T01:02:23.306Z,1.47
2018-02-13T01:04:50.761Z,1.61
2018-02-13T01:07:18.536Z,1.74
2018-02-13T01:09:45.993Z,1.66
2018-02-13T01:12:13.446Z,1.64
2018-02-13T01:14:41.538Z,1.66
2018-02-13T01:17:08.993Z,1.60
2018-02-13T01:19:36.481Z,1.63
2018-02-13T01:22:04.229Z,1.56
2018-02-13T01:24:31.700Z,1.60
2018-02-13T01:26:59.147Z,1.65
2018-02-13T01:29:26.925Z,1.52
2018-02-13T01:31:54.379Z,1.58
2018-02-13T01:34:21.837Z,1.60
2018-02-13T01:36:49.529Z,1.68
2018-02-13T01:39:17.013Z,1.62
2018-02-13T01:41:44.465Z,1.63
2018-02-13T01:44:12.300Z,1.65
2018-02-13T01:46:39.764Z,1.65
2018-02-13T01:49:07.215Z,1.68
2018-02-13T01:51:34.973Z,1.65
2018-02-13T01:54:02.446Z,1.68
2018-02-13T01:56:29.889Z,1.68
2018-02-13T01:58:57.662Z,1.67
2018-02-13T02:01:25.118Z,1.63
2018-02-13T02:03:53.257Z,1.69
2018-02-13T02:06:21.273Z,1.63
2018-02-13T02:08:48.728Z,1.68
2018-02-13T02:11:16.180Z,1.67
2018-02-13T02:13:43.933Z,1.69
2018-02-13T02:16:11.381Z,1.63
2018-02-13T02:18:38.834Z,1.57
2018-02-13T02:21:06.654Z,1.64
2018-02-13T02:23:34.112Z,1.68
2018-02-13T02:26:01.564Z,1.68
2018-02-13T02:28:29.293Z,1.60
2018-02-13T02:30:56.752Z,1.54
2018-02-13T02:33:24.204Z,1.64
2018-02-13T02:35:52.025Z,1.50
2018-02-13T02:38:19.480Z,1.52
2018-02-13T02:40:46.937Z,1.51
2018-02-13T02:43:14.713Z,1.60
2018-02-13T02:45:42.172Z,1.51
2018-02-13T02:48:09.650Z,1.48
2018-02-13T02:50:37.308Z,1.40
2018-02-13T02:53:04.778Z,1.32
2018-02-13T02:55:32.237Z,1.30
2018-02-13T02:58:00.082Z,1.36
2018-02-13T03:00:27.540Z,1.27
2018-02-13T03:02:54.999Z,1.30
2018-02-13T03:05:23.682Z,1.24
2018-02-13T03:07:51.141Z,1.22
2018-02-13T03:10:18.593Z,1.29
2018-02-13T03:12:46.373Z,1.17
2018-02-13T03:15:13.836Z,1.10
2018-02-13T03:17:41.292Z,1.10
2018-02-13T03:20:09.365Z,1.14
2018-02-13T03:22:36.822Z,1.10
2018-02-13T03:25:04.280Z,1.12
2018-02-13T03:27:31.896Z,1.15
2018-02-13T03:29:59.364Z,1.08
2018-02-13T03:32:26.825Z,1.22
2018-02-13T03:34:54.744Z,1.08
2018-02-13T03:37:22.215Z,1.10
2018-02-13T03:39:49.677Z,1.07
2018-02-13T03:42:17.434Z,1.02
2018-02-13T03:44:44.893Z,1.03
2018-02-13T03:47:12.341Z,0.98
2018-02-13T03:49:40.120Z,0.99
2018-02-13T03:52:07.576Z,0.93
2018-02-13T03:54:35.030Z,0.87
2018-02-13T03:57:02.804Z,0.84
2018-02-13T03:59:30.268Z,0.81
2018-02-13T04:01:57.725Z,0.80
2018-02-13T04:04:25.516Z,0.83
2018-02-13T04:06:54.857Z,0.80
2018-02-13T04:09:22.315Z,0.77
2018-02-13T04:11:50.334Z,0.79
2018-02-13T04:14:17.785Z,0.78
2018-02-13T04:16:45.248Z,0.75
2018-02-13T04:19:13.321Z,0.70
2018-02-13T04:21:40.777Z,0.70
2018-02-13T04:24:08.253Z,0.74
2018-02-13T04:26:36.008Z,0.71
2018-02-13T04:29:03.475Z,0.71
2018-02-13T04:31:30.938Z,0.74
2018-02-13T04:33:58.685Z,0.67
2018-02-13T04:36:26.142Z,0.69
2018-02-13T04:38:53.592Z,0.61
2018-02-13T04:41:21.394Z,0.59
2018-02-13T04:43:48.847Z,0.56
2018-02-13T04:46:16.304Z,0.55
2018-02-13T04:48:44.067Z,0.63
2018-02-13T04:51:11.521Z,0.63
2018-02-13T04:53:38.968Z,0.89
2018-02-13T04:56:06.755Z,0.88
2018-02-13T04:58:34.216Z,0.70
2018-02-13T05:01:01.687Z,0.62
2018-02-13T05:03:29.744Z,0.57
2018-02-13T05:05:57.202Z,0.53
2018-02-13T05:08:25.362Z,0.61
2018-02-13T05:10:53.361Z,0.53
2018-02-13T05:13:20.821Z,0.50
2018-02-13T05:15:48.272Z,0.51
2018-02-13T05:18:16.048Z,0.49
2018-02-13T05:20:43.501Z,0.66
2018-02-13T05:23:10.952Z,0.68
2018-02-13T05:25:38.738Z,0.67
2018-02-13T05:28:06.202Z,0.56
2018-02-13T05:30:33.661Z,0.52
2018-02-13T05:33:01.426Z,0.46
2018-02-13T05:35:28.890Z,0.55
2018-02-13T05:37:56.368Z,0.64
2018-02-13T05:40:24.409Z,0.88
2018-02-13T05:42:51.865Z,0.84
2018-02-13T05:45:19.312Z,0.65
2018-02-13T05:47:47.071Z,0.71
2018-02-13T05:50:14.522Z,0.66
2018-02-13T05:52:41.971Z,0.58
2018-02-13T05:55:09.800Z,0.62
2018-02-13T05:57:37.261Z,0.56
2018-02-13T06:00:04.737Z,0.56
2018-02-13T06:02:32.477Z,0.54
2018-02-13T06:04:59.933Z,0.50
2018-02-13T06:07:27.400Z,0.59
2018-02-13T06:09:57.074Z,0.69
2018-02-13T06:12:24.528Z,0.65
2018-02-13T06:14:51.979Z,0.71
2018-02-13T06:17:19.862Z,0.60
2018-02-13T06:19:47.317Z,0.63
2018-02-13T06:22:14.769Z,0.69
2018-02-13T06:24:42.692Z,0.65
2018-02-13T06:27:10.156Z,0.70
2018-02-13T06:29:37.613Z,0.72
2018-02-13T06:32:05.680Z,0.68
2018-02-13T06:34:33.133Z,0.73
2018-02-13T06:37:00.584Z,0.74
2018-02-13T06:39:28.360Z,0.73
2018-02-13T06:41:55.851Z,0.92
2018-02-13T06:44:23.302Z,1.02
2018-02-13T06:46:51.048Z,1.84
2018-02-13T06:49:18.492Z,1.55
2018-02-13T06:51:45.944Z,2.45
2018-02-13T06:54:13.737Z,2.42
2018-02-13T06:56:41.190Z,1.77
2018-02-13T06:59:08.642Z,1.46
2018-02-13T07:01:36.449Z,1.38
2018-02-13T07:04:03.896Z,1.29
2018-02-13T07:06:31.353Z,1.22
2018-02-13T07:08:58.940Z,1.26
2018-02-13T07:11:28.789Z,1.25
2018-02-13T07:13:56.241Z,1.15
2018-02-13T07:16:23.920Z,1.11
2018-02-13T07:18:51.368Z,1.19
2018-02-13T07:21:18.824Z,1.13
2018-02-13T07:23:46.649Z,1.13
2018-02-13T07:26:14.101Z,1.26
2018-02-13T07:28:41.544Z,1.19
2018-02-13T07:31:09.268Z,1.19
2018-02-13T07:33:36.729Z,1.23
2018-02-13T07:36:04.194Z,1.29
2018-02-13T07:38:32.013Z,1.27
2018-02-13T07:40:59.464Z,1.21
2018-02-13T07:43:26.914Z,1.29
2018-02-13T07:45:54.997Z,1.38
2018-02-13T07:48:22.445Z,1.50
2018-02-13T07:50:49.895Z,1.32
2018-02-13T07:53:17.925Z,1.41
2018-02-13T07:55:45.381Z,1.36
2018-02-13T07:58:12.831Z,1.31
2018-02-13T08:00:40.683Z,1.28
2018-02-13T08:03:08.139Z,1.47
2018-02-13T08:05:35.584Z,1.47
2018-02-13T08:08:03.369Z,1.30
2018-02-13T08:10:30.821Z,1.34
2018-02-13T08:12:59.280Z,1.26
2018-02-13T08:15:27.010Z,1.16
2018-02-13T08:17:54.473Z,1.14
2018-02-13T08:20:21.924Z,1.04
2018-02-13T08:22:49.972Z,1.16
2018-02-13T08:25:17.412Z,1.05
2018-02-13T08:27:44.862Z,1.11
2018-02-13T08:30:12.659Z,1.14
2018-02-13T08:32:40.109Z,1.21
2018-02-13T08:35:07.593Z,1.36
2018-02-13T08:37:35.229Z,1.57
2018-02-13T08:40:02.685Z,1.72
2018-02-13T08:42:30.144Z,1.74
2018-02-13T08:44:58.032Z,1.79
2018-02-13T08:47:25.480Z,1.89
2018-02-13T08:49:52.934Z,2.00
2018-02-13T08:52:21.030Z,1.95
2018-02-13T08:54:48.472Z,1.95
2018-02-13T08:57:15.924Z,1.91
2018-02-13T08:59:43.710Z,1.99
2018-02-13T09:02:11.156Z,2.14
2018-02-13T09:04:38.608Z,2.30
2018-02-13T09:07:07.016Z,2.36
2018-02-13T09:09:34.465Z,2.19
2018-02-13T09:12:01.915Z,2.27
2018-02-13T09:14:30.018Z,2.70
2018-02-13T09:16:57.495Z,2.59
2018-02-13T09:19:24.943Z,2.27
2018-02-13T09:21:52.701Z,2.21
2018-02-13T09:24:20.143Z,2.40
2018-02-13T09:26:47.597Z,2.41
2018-02-13T09:29:15.385Z,2.26
2018-02-13T09:31:42.840Z,2.82
2018-02-13T09:34:10.299Z,2.89
2018-02-13T09:36:38.371Z,3.02
2018-02-13T09:39:05.824Z,3.09
2018-02-13T09:41:33.276Z,2.98
2018-02-13T09:44:01.062Z,3.09
2018-02-13T09:46:28.509Z,3.09
2018-02-13T09:48:55.957Z,2.98
2018-02-13T09:51:23.756Z,3.04
2018-02-13T09:53:51.201Z,2.98
2018-02-13T09:56:18.660Z,3.14
2018-02-13T09:58:46.431Z,3.34
2018-02-13T10:01:13.890Z,3.53
2018-02-13T10:03:41.340Z,3.81
2018-02-13T10:06:09.130Z,3.78
2018-02-13T10:08:36.569Z,4.13
2018-02-13T10:11:04.017Z,4.24
2018-02-13T10:13:31.640Z,4.45
2018-02-13T10:15:59.948Z,4.22
2018-02-13T10:18:27.715Z,4.68
2018-02-13T10:20:55.418Z,5.01
2018-02-13T10:23:22.863Z,4.98
2018-02-13T10:25:50.303Z,5.06
2018-02-13T10:28:18.110Z,4.96
2018-02-13T10:30:45.552Z,5.13
2018-02-13T10:33:12.997Z,5.04
2018-02-13T10:35:40.729Z,5.15
2018-02-13T10:38:08.189Z,4.81
2018-02-13T10:40:35.630Z,5.01
2018-02-13T10:43:03.749Z,4.77
2018-02-13T10:45:31.215Z,4.56
2018-02-13T10:47:58.658Z,4.57
2018-02-13T10:50:26.485Z,4.63
2018-02-13T10:52:53.932Z,4.49
2018-02-13T10:55:21.379Z,4.59
2018-02-13T10:57:49.016Z,4.52
2018-02-13T11:00:16.463Z,4.46
2018-02-13T11:02:43.903Z,4.12
2018-02-13T11:05:11.545Z,4.04
2018-02-13T11:07:38.980Z,3.97
2018-02-13T11:10:06.420Z,4.35
2018-02-13T11:12:34.152Z,4.09
2018-02-13T11:15:01.593Z,4.20
2018-02-13T11:17:29.688Z,4.14
2018-02-13T11:19:57.308Z,4.18
2018-02-13T11:22:24.748Z,4.50
2018-02-13T11:24:52.194Z,4.33
2018-02-13T11:27:20.005Z,4.42
2018-02-13T11:29:47.453Z,4.57
2018-02-13T11:32:14.901Z,4.63
2018-02-13T11:34:42.726Z,4.54
2018-02-13T11:37:10.169Z,4.82
2018-02-13T11:39:37.608Z,4.51
2018-02-13T11:42:05.536Z,4.49
2018-02-13T11:44:33.025Z,4.66
2018-02-13T11:47:00.443Z,4.95
2018-02-13T11:49:28.276Z,4.76
2018-02-13T11:51:55.716Z,4.72
2018-02-13T11:54:23.161Z,4.82
2018-02-13T11:56:50.988Z,4.94
2018-02-13T11:59:18.432Z,5.11
2018-02-13T12:01:45.870Z,5.47
2018-02-13T12:04:13.666Z,5.78
2018-02-13T12:06:41.113Z,5.36
2018-02-13T12:09:08.557Z,5.39
2018-02-13T12:11:36.341Z,5.74
2018-02-13T12:14:03.872Z,6.29
2018-02-13T12:16:31.319Z,6.34
2018-02-13T12:18:59.946Z,7.16
2018-02-13T12:21:27.393Z,6.60
2018-02-13T12:23:54.837Z,5.89
2018-02-13T12:26:22.637Z,5.42
2018-02-13T12:28:50.077Z,5.80
2018-02-13T12:31:17.526Z,6.51
2018-02-13T12:33:45.326Z,6.86
2018-02-13T12:36:12.764Z,7.59
2018-02-13T12:38:40.209Z,6.29
2018-02-13T12:41:08.016Z,6.54
2018-02-13T12:43:35.457Z,6.84
2018-02-13T12:46:02.911Z,6.24
2018-02-13T12:48:30.693Z,6.76
2018-02-13T12:50:58.163Z,6.45
2018-02-13T12:53:25.613Z,6.18
2018-02-13T12:55:54.306Z,5.49
2018-02-13T12:58:21.755Z,5.37
2018-02-13T13:00:49.201Z,5.50
2018-02-13T13:03:17.016Z,5.40
2018-02-13T13:05:44.461Z,5.43
2018-02-13T13:08:11.901Z,5.20
2018-02-13T13:10:40.299Z,5.14
2018-02-13T13:13:07.753Z,5.85
2018-02-13T13:15:35.202Z,6.04
2018-02-13T13:18:03.294Z,7.47
2018-02-13T13:20:31.447Z,9.08
2018-02-13T13:22:58.908Z,8.59
2018-02-13T13:25:26.904Z,10.13
2018-02-13T13:27:54.352Z,10.47
2018-02-13T13:30:21.816Z,10.13
2018-02-13T13:32:49.588Z,9.35
2018-02-13T13:35:17.036Z,9.88
2018-02-13T13:37:44.477Z,9.34
2018-02-13T13:40:12.203Z,9.31
2018-02-13T13:42:39.640Z,9.05
2018-02-13T13:45:07.097Z,8.58
2018-02-13T13:47:34.968Z,7.31
2018-02-13T13:50:02.436Z,7.96
2018-02-13T13:52:29.888Z,7.38
2018-02-13T13:54:57.645Z,7.12
2018-02-13T13:57:25.081Z,7.17
2018-02-13T13:59:52.526Z,7.02
2018-02-13T14:02:20.629Z,7.31
2018-02-13T14:04:48.077Z,7.15
2018-02-13T14:07:15.528Z,6.44
2018-02-13T14:09:43.329Z,5.84
2018-02-13T14:12:10.765Z,6.65
2018-02-13T14:14:38.208Z,6.43
2018-02-13T14:17:07.907Z,5.99
2018-02-13T14:19:35.356Z,6.14
2018-02-13T14:22:03.764Z,6.31
2018-02-13T14:24:31.490Z,6.67
2018-02-13T14:26:59.305Z,6.68
2018-02-13T14:29:26.756Z,5.87
2018-02-13T14:31:54.583Z,5.79
2018-02-13T14:34:22.021Z,5.78
2018-02-13T14:36:49.460Z,5.45
2018-02-13T14:39:17.161Z,5.29
2018-02-13T14:41:44.603Z,5.19
2018-02-13T14:44:12.057Z,4.98
2018-02-13T14:46:39.828Z,5.07
2018-02-13T14:49:07.275Z,5.20
2018-02-13T14:51:34.711Z,5.11
2018-02-13T14:54:02.474Z,5.12
2018-02-13T14:56:29.921Z,5.03
2018-02-13T14:58:57.369Z,4.92
2018-02-13T15:01:25.212Z,4.97
2018-02-13T15:03:52.656Z,4.97
2018-02-13T15:06:20.091Z,4.81
2018-02-13T15:08:47.805Z,4.80
2018-02-13T15:11:15.249Z,4.78
2018-02-13T15:13:42.696Z,4.68
2018-02-13T15:16:10.890Z,4.68
2018-02-13T15:18:39.140Z,4.61
2018-02-13T15:21:06.584Z,4.68
2018-02-13T15:23:36.349Z,4.69
2018-02-13T15:26:03.784Z,4.71
2018-02-13T15:28:31.324Z,4.82
2018-02-13T15:30:59.032Z,4.93
2018-02-13T15:33:26.483Z,4.96
2018-02-13T15:35:53.932Z,5.16
2018-02-13T15:38:21.712Z,4.92
2018-02-13T15:40:49.170Z,4.88
2018-02-13T15:43:16.632Z,4.72
2018-02-13T15:45:44.396Z,4.79
2018-02-13T15:48:11.843Z,4.73
2018-02-13T15:50:39.292Z,4.54
2018-02-13T15:53:07.088Z,4.55
2018-02-13T15:55:34.547Z,4.49
2018-02-13T15:58:01.989Z,4.51
2018-02-13T16:00:29.684Z,4.25
2018-02-13T16:02:57.132Z,4.17
2018-02-13T16:05:24.576Z,4.29
2018-02-13T16:07:52.460Z,4.57
2018-02-13T16:10:19.900Z,4.44
2018-02-13T16:12:47.394Z,4.18
2018-02-13T16:15:15.146Z,4.29
2018-02-13T16:17:42.600Z,4.13
2018-02-13T16:20:10.063Z,3.98
2018-02-13T16:22:38.148Z,3.93
2018-02-13T16:25:06.284Z,3.86
2018-02-13T16:27:33.721Z,3.56
2018-02-13T16:30:01.443Z,3.51
2018-02-13T16:32:28.900Z,3.50
2018-02-13T16:34:56.341Z,3.47
2018-02-13T16:37:24.136Z,3.46
2018-02-13T16:39:51.641Z,3.45
2018-02-13T16:42:19.112Z,3.26
2018-02-13T16:44:47.134Z,3.42
2018-02-13T16:47:14.570Z,3.26
2018-02-13T16:49:42.005Z,3.18
2018-02-13T16:52:09.768Z,3.10
2018-02-13T16:54:37.225Z,3.22
2018-02-13T16:57:04.674Z,3.18
2018-02-13T16:59:32.507Z,3.27
2018-02-13T17:01:59.952Z,3.10
2018-02-13T17:04:27.403Z,3.23
2018-02-13T17:06:55.508Z,3.10
2018-02-13T17:09:22.964Z,3.02
2018-02-13T17:11:51.132Z,3.12
2018-02-13T17:14:18.820Z,3.13
2018-02-13T17:16:46.273Z,3.14
2018-02-13T17:19:13.711Z,3.10
2018-02-13T17:21:42.407Z,3.07
2018-02-13T17:24:09.848Z,3.08
2018-02-13T17:26:38.009Z,3.20
2018-02-13T17:29:05.766Z,3.06
2018-02-13T17:31:33.228Z,3.15
2018-02-13T17:34:00.684Z,3.23
2018-02-13T17:36:28.605Z,3.11
2018-02-13T17:38:56.058Z,3.10
2018-02-13T17:41:23.509Z,3.16
2018-02-13T17:43:51.379Z,3.20
2018-02-13T17:46:19.475Z,3.12
2018-02-13T17:48:46.950Z,3.11
2018-02-13T17:51:14.687Z,3.08
2018-02-13T17:53:42.132Z,3.00
2018-02-13T17:56:10.089Z,3.08
2018-02-13T17:58:38.277Z,3.13
2018-02-13T18:01:05.724Z,2.86
2018-02-13T18:03:33.860Z,2.84
2018-02-13T18:06:01.591Z,2.85
2018-02-13T18:08:29.674Z,2.89
2018-02-13T18:10:57.182Z,2.99
2018-02-13T18:13:24.906Z,3.05
2018-02-13T18:15:52.374Z,3.04
2018-02-13T18:18:20.730Z,3.08
2018-02-13T18:20:48.506Z,3.03
2018-02-13T18:23:15.953Z,3.11
2018-02-13T18:25:43.422Z,3.09
2018-02-13T18:28:12.121Z,3.09
2018-02-13T18:30:39.574Z,2.96
2018-02-13T18:33:08.265Z,2.99
2018-02-13T18:35:36.033Z,3.02
2018-02-13T18:38:04.004Z,2.89
2018-02-13T18:40:31.451Z,2.77
2018-02-13T18:42:59.340Z,2.78
2018-02-13T18:45:26.780Z,2.84
2018-02-13T18:47:54.231Z,2.81
2018-02-13T18:50:22.725Z,2.88
2018-02-13T18:55:17.623Z,2.80
2018-02-13T18:57:45.628Z,2.70
2018-02-13T19:00:13.823Z,2.63
2018-02-13T19:02:41.260Z,2.65
2018-02-13T19:05:09.235Z,2.55
2018-02-13T19:07:36.690Z,2.50
2018-02-13T19:10:04.132Z,2.53
2018-02-13T19:12:31.931Z,2.50
2018-02-13T19:14:59.386Z,2.40
2018-02-13T19:17:26.837Z,2.22
2018-02-13T19:19:54.615Z,2.08
2018-02-13T19:22:22.077Z,2.12
2018-02-13T19:24:49.525Z,2.24
2018-02-13T19:27:17.312Z,2.17
2018-02-13T19:29:46.669Z,2.27
2018-02-13T19:32:14.116Z,2.25
2018-02-13T19:34:41.829Z,2.30
2018-02-13T19:37:09.379Z,2.30
2018-02-13T19:39:36.829Z,2.27
2018-02-13T19:42:04.980Z,2.17
2018-02-13T19:44:32.525Z,2.26
2018-02-13T19:47:00.027Z,2.23
2018-02-13T19:49:27.811Z,2.31
2018-02-13T19:51:55.961Z,2.28
2018-02-13T19:54:23.408Z,2.25
2018-02-13T19:56:51.480Z,2.24
2018-02-13T19:59:18.969Z,2.24
2018-02-13T20:01:47.137Z,2.20
2018-02-13T20:04:16.116Z,2.47
2018-02-13T20:06:43.577Z,4.03
2018-02-13T20:09:11.029Z,2.97
2018-02-13T20:11:38.712Z,2.66
2018-02-13T20:14:06.165Z,2.41
2018-02-13T20:16:34.042Z,2.33
2018-02-13T20:19:02.586Z,2.39
2018-02-13T20:21:30.072Z,2.37
2018-02-13T20:23:57.520Z,2.37
2018-02-13T20:26:25.564Z,2.19
2018-02-13T20:28:53.497Z,2.00
2018-02-13T20:31:23.261Z,2.01
2018-02-13T20:33:51.004Z,1.99
2018-02-13T20:36:18.473Z,2.19
2018-02-13T20:38:45.932Z,2.25
2018-02-13T20:41:14.304Z,2.25
2018-02-13T20:43:42.666Z,2.20
2018-02-13T20:46:10.120Z,2.16
2018-02-13T20:48:38.097Z,2.18
2018-02-13T20:51:05.897Z,2.29
2018-02-13T20:53:34.297Z,2.30
2018-02-13T20:56:02.152Z,2.33
2018-02-13T20:58:29.607Z,2.28
2018-02-13T21:00:57.064Z,2.58
2018-02-13T21:03:24.838Z,2.25
2018-02-13T21:05:52.300Z,2.19
2018-02-13T21:08:19.796Z,2.21
2018-02-13T21:10:47.536Z,2.00
2018-02-13T21:13:15.028Z,1.92
2018-02-13T21:15:42.485Z,1.89
2018-02-13T21:18:10.932Z,1.91
2018-02-13T21:20:38.383Z,2.01
2018-02-13T21:23:05.838Z,1.91
2018-02-13T21:25:34.460Z,1.90
2018-02-13T21:28:04.417Z,1.75
2018-02-13T21:30:31.878Z,1.72
2018-02-13T21:33:01.131Z,1.64
2018-02-13T21:35:28.580Z,1.61
2018-02-13T21:37:56.037Z,1.70
2018-02-13T21:40:23.754Z,1.69
2018-02-13T21:42:51.214Z,1.59
2018-02-13T21:45:18.675Z,1.54
2018-02-13T21:47:46.480Z,1.49
2018-02-13T21:50:13.928Z,1.40
2018-02-13T21:52:41.379Z,1.42
2018-02-13T21:55:09.165Z,1.34
2018-02-13T21:57:36.627Z,1.26
2018-02-13T22:00:04.106Z,1.22
2018-02-13T22:02:31.865Z,1.21
2018-02-13T22:04:59.324Z,1.20
2018-02-13T22:07:26.794Z,1.20
2018-02-13T22:09:54.556Z,1.18
2018-02-13T22:12:22.008Z,1.26
2018-02-13T22:14:49.457Z,1.26
2018-02-13T22:17:17.225Z,1.16
2018-02-13T22:19:44.669Z,1.11
2018-02-13T22:22:12.124Z,1.07
2018-02-13T22:24:39.922Z,1.09
2018-02-13T22:27:07.376Z,1.10
2018-02-13T22:29:34.825Z,1.16
2018-02-13T22:32:02.503Z,1.10
2018-02-13T22:34:30.434Z,0.97
2018-02-13T22:36:57.889Z,0.98
2018-02-13T22:39:25.902Z,0.96
2018-02-13T22:41:53.358Z,0.94
2018-02-13T22:44:20.815Z,0.85
2018-02-13T22:46:48.591Z,0.98
2018-02-13T22:49:16.044Z,0.96
2018-02-13T22:51:43.488Z,0.80
2018-02-13T22:54:11.232Z,0.86
2018-02-13T22:56:38.685Z,0.93
2018-02-13T22:59:06.273Z,0.91
2018-02-13T23:01:34.008Z,0.74
2018-02-13T23:04:01.476Z,0.62
2018-02-13T23:06:28.934Z,0.55
2018-02-13T23:08:56.656Z,0.54
2018-02-13T23:11:24.114Z,0.46
2018-02-13T23:13:51.568Z,0.47
2018-02-13T23:16:19.652Z,1.09
2018-02-13T23:18:47.111Z,2.06
2018-02-13T23:21:14.565Z,1.04
2018-02-13T23:23:42.346Z,0.62
2018-02-13T23:26:09.812Z,0.37
2018-02-13T23:28:37.268Z,0.18
2018-02-13T23:31:05.012Z,0.01
2018-02-13T23:33:32.469Z,0.05
2018-02-13T23:36:00.323Z,0.05
2018-02-13T23:38:28.037Z,0.16
2018-02-13T23:40:55.488Z,0.09
2018-02-13T23:43:22.953Z,0.10
2018-02-13T23:45:50.713Z,0.07
2018-02-13T23:48:18.169Z,0.01
2018-02-13T23:50:45.634Z,0.01
2018-02-13T23:53:13.389Z,-0.02
2018-02-13T23:55:40.837Z,0.04
2018-02-13T23:58:08.298Z,-0.11
